createdAt,value
2018-03-06T00:00:01.070Z,68.55
2018-03-06T00:01:01.077Z,68.36
2018-03-06T00:02:01.082Z,68.36
2018-03-06T00:03:01.091Z,68.55
2018-03-06T00:04:01.096Z,68.36
2018-03-06T00:05:01.096Z,67.79
2018-03-06T00:06:01.107Z,68.17
2018-03-06T00:07:01.119Z,67.89
2018-03-06T00:08:01.123Z,67.98
2018-03-06T00:09:01.128Z,68.36
2018-03-06T00:10:01.135Z,68.36
2018-03-06T00:11:01.142Z,67.89
2018-03-06T00:12:01.143Z,68.17
2018-03-06T00:13:01.154Z,68.65
2018-03-06T00:14:01.155Z,68.84
2018-03-06T00:15:01.167Z,68.74
2018-03-06T00:16:01.169Z,68.55
2018-03-06T00:17:01.174Z,68.74
2018-03-06T00:18:01.186Z,68.84
2018-03-06T00:19:01.193Z,69.02
2018-03-06T00:20:01.201Z,69.21
2018-03-06T00:21:01.205Z,68.84
2018-03-06T00:22:01.206Z,69.12
2018-03-06T00:23:01.283Z,69.12
2018-03-06T00:24:01.220Z,69.21
2018-03-06T00:25:01.231Z,69.49
2018-03-06T00:26:01.242Z,69.21
2018-03-06T00:27:01.241Z,69.31
2018-03-06T00:28:01.246Z,69.12
2018-03-06T00:29:01.257Z,69.59
2018-03-06T00:30:01.266Z,69.78
2018-03-06T00:31:01.271Z,70.06
2018-03-06T00:32:01.273Z,69.68
2018-03-06T00:33:01.330Z,69.78
2018-03-06T00:34:01.287Z,69.68
2018-03-06T00:35:01.297Z,69.21
2018-03-06T00:36:01.298Z,69.59
2018-03-06T00:37:01.304Z,69.40
2018-03-06T00:38:01.316Z,69.21
2018-03-06T00:39:01.316Z,69.49
2018-03-06T00:40:01.329Z,69.40
2018-03-06T00:41:01.331Z,69.31
2018-03-06T00:42:01.343Z,68.93
2018-03-06T00:43:01.348Z,69.02
2018-03-06T00:44:01.354Z,69.02
2018-03-06T00:45:01.363Z,68.93
2018-03-06T00:46:01.362Z,68.84
2018-03-06T00:47:01.370Z,68.93
2018-03-06T00:48:01.380Z,68.65
2018-03-06T00:49:01.387Z,68.74
2018-03-06T00:50:01.400Z,68.46
2018-03-06T00:51:01.399Z,68.55
2018-03-06T00:52:01.408Z,68.74
2018-03-06T00:53:01.411Z,68.93
2018-03-06T00:54:01.415Z,69.21
2018-03-06T00:55:01.421Z,68.74
2018-03-06T00:56:01.428Z,68.65
2018-03-06T00:57:01.432Z,68.84
2018-03-06T00:58:01.444Z,69.02
2018-03-06T00:59:01.447Z,68.84
2018-03-06T01:00:01.461Z,68.65
2018-03-06T01:01:01.468Z,68.27
2018-03-06T01:02:01.467Z,68.55
2018-03-06T01:03:01.477Z,69.31
2018-03-06T01:04:01.488Z,69.49
2018-03-06T01:05:01.484Z,69.21
2018-03-06T01:06:01.497Z,69.49
2018-03-06T01:07:01.498Z,69.40
2018-03-06T01:08:01.504Z,69.12
2018-03-06T01:09:01.510Z,69.31
2018-03-06T01:10:01.517Z,69.21
2018-03-06T01:11:01.528Z,69.40
2018-03-06T01:12:01.529Z,69.49
2018-03-06T01:13:01.537Z,69.21
2018-03-06T01:14:01.542Z,69.49
2018-03-06T01:15:01.548Z,69.02
2018-03-06T01:16:01.557Z,68.93
2018-03-06T01:17:01.565Z,69.59
2018-03-06T01:18:01.568Z,69.31
2018-03-06T01:19:01.574Z,68.80
2018-03-06T01:20:01.586Z,69.02
2018-03-06T01:21:01.591Z,68.93
2018-03-06T01:22:01.593Z,68.65
2018-03-06T01:23:01.600Z,68.55
2018-03-06T01:24:01.608Z,68.17
2018-03-06T01:25:01.611Z,68.36
2018-03-06T01:26:01.624Z,67.98
2018-03-06T01:27:01.629Z,67.89
2018-03-06T01:28:01.638Z,68.46
2018-03-06T01:29:01.637Z,68.27
2018-03-06T01:30:01.644Z,67.89
2018-03-06T01:31:01.650Z,67.89
2018-03-06T01:32:01.661Z,67.70
2018-03-06T01:33:01.662Z,67.41
2018-03-06T01:34:01.669Z,67.22
2018-03-06T01:35:01.681Z,67.47
2018-03-06T01:36:01.681Z,67.57
2018-03-06T01:37:01.686Z,68.14
2018-03-06T01:38:01.698Z,68.52
2018-03-06T01:39:01.707Z,68.61
2018-03-06T01:40:01.709Z,68.90
2018-03-06T01:41:01.712Z,68.90
2018-03-06T01:42:01.726Z,68.80
2018-03-06T01:43:01.730Z,69.27
2018-03-06T01:44:01.731Z,69.59
2018-03-06T01:45:01.737Z,68.55
2018-03-06T01:46:01.748Z,68.33
2018-03-06T01:47:01.748Z,67.76
2018-03-06T01:48:01.766Z,67.00
2018-03-06T01:49:01.766Z,67.22
2018-03-06T01:50:01.769Z,66.53
2018-03-06T01:51:01.774Z,66.75
2018-03-06T01:52:01.780Z,67.19
2018-03-06T01:53:01.785Z,67.95
2018-03-06T01:54:01.799Z,67.51
2018-03-06T01:55:01.799Z,67.38
2018-03-06T01:56:01.814Z,66.53
2018-03-06T01:57:01.823Z,66.25
2018-03-06T01:58:01.828Z,66.35
2018-03-06T01:59:01.823Z,66.63
2018-03-06T02:00:01.842Z,67.10
2018-03-06T02:01:01.841Z,68.23
2018-03-06T02:02:01.848Z,68.33
2018-03-06T02:03:01.849Z,67.66
2018-03-06T02:04:01.855Z,68.36
2018-03-06T02:05:01.865Z,68.23
2018-03-06T02:06:01.867Z,68.71
2018-03-06T02:07:01.877Z,68.61
2018-03-06T02:08:01.878Z,68.42
2018-03-06T02:09:01.883Z,68.42
2018-03-06T02:10:01.892Z,67.19
2018-03-06T02:11:01.903Z,66.16
2018-03-06T02:12:01.904Z,64.45
2018-03-06T02:13:01.914Z,63.70
2018-03-06T02:14:01.917Z,63.13
2018-03-06T02:15:01.922Z,63.60
2018-03-06T02:16:01.934Z,63.98
2018-03-06T02:17:01.935Z,64.26
2018-03-06T02:18:01.946Z,64.73
2018-03-06T02:19:01.954Z,64.92
2018-03-06T02:20:01.957Z,66.25
2018-03-06T02:21:01.960Z,66.25
2018-03-06T02:22:01.962Z,65.97
2018-03-06T02:23:01.970Z,66.16
2018-03-06T02:24:01.982Z,66.25
2018-03-06T02:25:01.981Z,66.16
2018-03-06T02:26:02.023Z,66.25
2018-03-06T02:27:01.993Z,66.06
2018-03-06T02:28:02.005Z,65.21
2018-03-06T02:29:02.005Z,64.36
2018-03-06T02:30:02.020Z,64.07
2018-03-06T02:31:02.024Z,64.64
2018-03-06T02:32:02.031Z,65.21
2018-03-06T02:33:02.035Z,65.11
2018-03-06T02:34:02.067Z,65.87
2018-03-06T02:35:02.050Z,65.40
2018-03-06T02:36:02.055Z,63.98
2018-03-06T02:37:02.059Z,64.54
2018-03-06T02:38:02.065Z,64.83
2018-03-06T02:39:02.070Z,65.40
2018-03-06T02:40:02.078Z,65.21
2018-03-06T02:41:02.077Z,65.49
2018-03-06T02:42:02.084Z,64.64
2018-03-06T02:43:02.089Z,64.45
2018-03-06T02:44:02.097Z,65.21
2018-03-06T02:45:02.100Z,64.83
2018-03-06T02:46:02.106Z,64.54
2018-03-06T02:47:02.119Z,63.70
2018-03-06T02:48:02.130Z,63.32
2018-03-06T02:49:02.123Z,63.51
2018-03-06T02:50:02.129Z,63.70
2018-03-06T02:51:02.134Z,63.42
2018-03-06T02:52:02.146Z,62.75
2018-03-06T02:53:02.151Z,62.75
2018-03-06T02:54:02.158Z,63.79
2018-03-06T02:55:02.160Z,64.26
2018-03-06T02:56:02.168Z,63.51
2018-03-06T02:57:02.174Z,63.32
2018-03-06T02:58:02.182Z,64.26
2018-03-06T02:59:02.186Z,64.17
2018-03-06T03:00:02.187Z,63.04
2018-03-06T03:01:02.197Z,62.09
2018-03-06T03:02:02.198Z,62.37
2018-03-06T03:03:02.203Z,62.56
2018-03-06T03:04:02.215Z,62.85
2018-03-06T03:05:02.214Z,63.23
2018-03-06T03:06:02.228Z,63.70
2018-03-06T03:07:02.231Z,63.98
2018-03-06T03:08:02.239Z,63.51
2018-03-06T03:09:02.245Z,63.51
2018-03-06T03:10:02.254Z,63.79
2018-03-06T03:11:02.249Z,63.89
2018-03-06T03:12:02.257Z,64.36
2018-03-06T03:13:02.266Z,64.64
2018-03-06T03:14:02.274Z,65.30
2018-03-06T03:15:02.280Z,65.21
2018-03-06T03:16:02.284Z,65.21
2018-03-06T03:17:02.292Z,65.02
2018-03-06T03:18:02.296Z,64.73
2018-03-06T03:19:02.298Z,65.11
2018-03-06T03:20:02.306Z,64.54
2018-03-06T03:21:02.307Z,64.54
2018-03-06T03:22:02.318Z,63.98
2018-03-06T03:23:02.327Z,63.60
2018-03-06T03:24:02.331Z,63.32
2018-03-06T03:25:02.331Z,63.70
2018-03-06T03:26:02.338Z,63.98
2018-03-06T03:27:02.348Z,63.89
2018-03-06T03:28:02.349Z,63.98
2018-03-06T03:29:02.355Z,63.89
2018-03-06T03:30:02.369Z,64.07
2018-03-06T03:31:02.368Z,63.89
2018-03-06T03:32:02.377Z,63.79
2018-03-06T03:33:02.420Z,63.23
2018-03-06T03:34:02.389Z,63.23
2018-03-06T03:35:02.391Z,63.60
2018-03-06T03:36:02.402Z,63.70
2018-03-06T03:37:02.408Z,64.26
2018-03-06T03:38:02.413Z,64.36
2018-03-06T03:39:02.415Z,64.73
2018-03-06T03:40:02.428Z,64.83
2018-03-06T03:41:02.427Z,64.36
2018-03-06T03:42:02.438Z,64.64
2018-03-06T03:43:02.445Z,64.92
2018-03-06T03:44:02.451Z,65.11
2018-03-06T03:45:02.452Z,64.54
2018-03-06T03:46:02.468Z,64.64
2018-03-06T03:47:02.464Z,64.92
2018-03-06T03:48:02.476Z,64.83
2018-03-06T03:49:02.480Z,64.64
2018-03-06T03:50:02.482Z,64.45
2018-03-06T03:51:02.497Z,64.54
2018-03-06T03:52:02.497Z,64.73
2018-03-06T03:53:02.507Z,64.64
2018-03-06T03:54:02.511Z,65.02
2018-03-06T03:55:02.518Z,65.30
2018-03-06T03:56:02.517Z,65.49
2018-03-06T03:57:02.522Z,65.30
2018-03-06T03:58:02.530Z,65.40
2018-03-06T03:59:02.543Z,64.92
2018-03-06T04:00:02.546Z,64.54
2018-03-06T04:01:02.547Z,64.26
2018-03-06T04:02:02.551Z,63.98
2018-03-06T04:03:02.566Z,63.60
2018-03-06T04:04:02.570Z,63.70
2018-03-06T04:05:02.576Z,63.89
2018-03-06T04:06:02.575Z,63.98
2018-03-06T04:07:02.584Z,63.89
2018-03-06T04:08:02.592Z,64.07
2018-03-06T04:09:02.594Z,63.98
2018-03-06T04:10:02.599Z,63.98
2018-03-06T04:11:02.622Z,64.07
2018-03-06T04:12:02.617Z,63.89
2018-03-06T04:13:02.621Z,63.79
2018-03-06T04:14:02.632Z,63.60
2018-03-06T04:15:02.633Z,64.07
2018-03-06T04:16:02.635Z,64.54
2018-03-06T04:17:02.639Z,64.54
2018-03-06T04:18:02.644Z,64.54
2018-03-06T04:19:02.659Z,63.89
2018-03-06T04:20:02.658Z,63.70
2018-03-06T04:21:02.662Z,64.45
2018-03-06T04:22:02.676Z,64.54
2018-03-06T04:23:02.680Z,64.92
2018-03-06T04:24:02.688Z,65.02
2018-03-06T04:25:02.693Z,64.73
2018-03-06T04:26:02.700Z,64.92
2018-03-06T04:27:02.700Z,65.30
2018-03-06T04:28:02.707Z,65.59
2018-03-06T04:29:02.711Z,65.97
2018-03-06T04:30:02.724Z,65.78
2018-03-06T04:31:02.727Z,66.25
2018-03-06T04:32:02.729Z,65.68
2018-03-06T04:33:02.738Z,66.16
2018-03-06T04:34:02.739Z,66.25
2018-03-06T04:35:02.747Z,66.72
2018-03-06T04:36:02.758Z,66.53
2018-03-06T04:37:02.757Z,66.82
2018-03-06T04:38:02.762Z,66.35
2018-03-06T04:39:02.767Z,66.91
2018-03-06T04:40:02.775Z,66.53
2018-03-06T04:41:02.780Z,66.16
2018-03-06T04:42:02.792Z,66.72
2018-03-06T04:43:02.798Z,66.82
2018-03-06T04:44:02.799Z,67.00
2018-03-06T04:45:02.815Z,67.29
2018-03-06T04:46:02.815Z,67.95
2018-03-06T04:47:02.816Z,67.76
2018-03-06T04:48:02.822Z,67.85
2018-03-06T04:49:02.826Z,67.47
2018-03-06T04:50:02.837Z,67.66
2018-03-06T04:51:02.838Z,68.14
2018-03-06T04:52:02.850Z,68.04
2018-03-06T04:53:02.856Z,68.42
2018-03-06T04:54:02.862Z,68.33
2018-03-06T04:55:02.868Z,68.14
2018-03-06T04:56:02.877Z,68.33
2018-03-06T04:57:02.878Z,67.66
2018-03-06T04:58:02.878Z,66.82
2018-03-06T04:59:02.887Z,67.00
2018-03-06T05:00:02.891Z,67.29
2018-03-06T05:01:02.896Z,66.82
2018-03-06T05:02:02.903Z,66.16
2018-03-06T05:03:02.910Z,66.06
2018-03-06T05:04:02.919Z,66.16
2018-03-06T05:05:02.921Z,66.25
2018-03-06T05:06:02.928Z,65.97
2018-03-06T05:07:02.931Z,65.97
2018-03-06T05:08:02.943Z,66.25
2018-03-06T05:09:02.951Z,66.16
2018-03-06T05:10:02.955Z,65.97
2018-03-06T05:11:02.991Z,66.06
2018-03-06T05:12:02.961Z,66.06
2018-03-06T05:13:02.970Z,66.06
2018-03-06T05:14:02.976Z,66.16
2018-03-06T05:15:02.978Z,66.25
2018-03-06T05:16:02.983Z,66.35
2018-03-06T05:17:02.993Z,66.16
2018-03-06T05:18:02.996Z,65.97
2018-03-06T05:19:03.002Z,64.26
2018-03-06T05:20:03.015Z,65.40
2018-03-06T05:21:03.016Z,65.11
2018-03-06T05:22:03.018Z,65.21
2018-03-06T05:23:03.030Z,64.64
2018-03-06T05:24:03.034Z,64.64
2018-03-06T05:25:03.040Z,64.83
2018-03-06T05:26:03.043Z,65.02
2018-03-06T05:27:03.047Z,65.11
2018-03-06T05:28:03.058Z,65.02
2018-03-06T05:29:03.057Z,65.49
2018-03-06T05:30:03.071Z,65.68
2018-03-06T05:31:03.072Z,65.97
2018-03-06T05:32:03.078Z,65.68
2018-03-06T05:33:03.085Z,65.78
2018-03-06T05:34:03.093Z,65.49
2018-03-06T05:35:03.099Z,64.73
2018-03-06T05:36:03.106Z,64.73
2018-03-06T05:37:03.103Z,64.45
2018-03-06T05:38:03.116Z,64.64
2018-03-06T05:39:03.156Z,64.73
2018-03-06T05:40:03.127Z,64.26
2018-03-06T05:41:03.139Z,63.89
2018-03-06T05:42:03.141Z,64.36
2018-03-06T05:43:03.146Z,64.54
2018-03-06T05:44:03.151Z,64.73
2018-03-06T05:45:03.153Z,64.73
2018-03-06T05:46:03.156Z,64.45
2018-03-06T05:47:03.169Z,64.36
2018-03-06T05:48:03.174Z,64.73
2018-03-06T05:49:03.176Z,64.64
2018-03-06T05:50:03.186Z,65.02
2018-03-06T05:51:03.191Z,65.21
2018-03-06T05:52:03.198Z,65.21
2018-03-06T05:53:03.198Z,64.73
2018-03-06T05:54:03.209Z,64.92
2018-03-06T05:55:03.215Z,65.02
2018-03-06T05:56:03.214Z,64.92
2018-03-06T05:57:03.220Z,65.30
2018-03-06T05:58:03.240Z,65.40
2018-03-06T05:59:03.231Z,65.11
2018-03-06T06:00:03.239Z,65.21
2018-03-06T06:01:03.250Z,65.40
2018-03-06T06:02:03.251Z,65.49
2018-03-06T06:03:03.255Z,65.87
2018-03-06T06:04:03.266Z,65.68
2018-03-06T06:05:03.267Z,66.16
2018-03-06T06:06:03.279Z,66.16
2018-03-06T06:07:03.285Z,66.06
2018-03-06T06:08:03.292Z,66.16
2018-03-06T06:09:03.301Z,66.44
2018-03-06T06:10:03.295Z,66.06
2018-03-06T06:11:03.306Z,66.16
2018-03-06T06:12:03.314Z,66.25
2018-03-06T06:13:03.324Z,66.53
2018-03-06T06:14:03.321Z,67.47
2018-03-06T06:15:03.328Z,67.76
2018-03-06T06:16:03.335Z,68.33
2018-03-06T06:17:03.333Z,67.85
2018-03-06T06:18:03.345Z,68.42
2018-03-06T06:19:03.348Z,68.71
2018-03-06T06:20:03.360Z,69.46
2018-03-06T06:21:03.362Z,69.27
2018-03-06T06:22:03.366Z,69.18
2018-03-06T06:23:03.368Z,69.18
2018-03-06T06:24:03.375Z,69.09
2018-03-06T06:25:03.384Z,69.46
2018-03-06T06:26:03.390Z,68.99
2018-03-06T06:27:03.397Z,69.37
2018-03-06T06:28:03.400Z,69.84
2018-03-06T06:29:03.403Z,70.12
2018-03-06T06:30:03.415Z,69.56
2018-03-06T06:31:03.419Z,69.18
2018-03-06T06:32:03.416Z,68.71
2018-03-06T06:33:03.446Z,68.71
2018-03-06T06:34:03.433Z,68.61
2018-03-06T06:35:03.435Z,68.33
2018-03-06T06:36:03.446Z,67.76
2018-03-06T06:37:03.453Z,67.95
2018-03-06T06:38:03.454Z,67.47
2018-03-06T06:39:03.459Z,67.85
2018-03-06T06:40:03.461Z,68.14
2018-03-06T06:41:03.470Z,68.52
2018-03-06T06:42:03.472Z,68.42
2018-03-06T06:43:03.481Z,68.04
2018-03-06T06:44:03.486Z,67.85
2018-03-06T06:45:03.488Z,68.14
2018-03-06T06:46:03.499Z,68.23
2018-03-06T06:47:03.503Z,67.76
2018-03-06T06:48:03.508Z,67.85
2018-03-06T06:49:03.509Z,68.33
2018-03-06T06:50:03.520Z,68.23
2018-03-06T06:51:03.518Z,67.95
2018-03-06T06:52:03.527Z,67.95
2018-03-06T06:53:03.537Z,68.23
2018-03-06T06:54:03.541Z,67.57
2018-03-06T06:55:03.550Z,68.04
2018-03-06T06:56:03.550Z,67.47
2018-03-06T06:57:03.553Z,67.57
2018-03-06T06:58:03.561Z,67.47
2018-03-06T06:59:03.565Z,67.47
2018-03-06T07:00:03.577Z,68.14
2018-03-06T07:01:03.580Z,67.66
2018-03-06T07:02:03.586Z,67.66
2018-03-06T07:03:03.586Z,67.85
2018-03-06T07:04:03.592Z,68.52
2018-03-06T07:05:03.596Z,67.85
2018-03-06T07:06:03.610Z,67.66
2018-03-06T07:07:03.614Z,67.95
2018-03-06T07:08:03.620Z,67.47
2018-03-06T07:09:03.622Z,67.19
2018-03-06T07:10:03.632Z,67.22
2018-03-06T07:11:03.633Z,67.22
2018-03-06T07:12:03.644Z,66.82
2018-03-06T07:13:03.644Z,66.85
2018-03-06T07:14:03.652Z,66.06
2018-03-06T07:15:03.656Z,66.28
2018-03-06T07:16:03.661Z,66.19
2018-03-06T07:17:03.667Z,66.38
2018-03-06T07:18:03.678Z,66.09
2018-03-06T07:19:03.680Z,65.81
2018-03-06T07:20:03.686Z,66.00
2018-03-06T07:21:03.695Z,66.38
2018-03-06T07:22:03.696Z,66.09
2018-03-06T07:23:03.708Z,65.97
2018-03-06T07:24:03.710Z,66.72
2018-03-06T07:25:03.715Z,67.38
2018-03-06T07:26:03.728Z,67.32
2018-03-06T07:27:03.731Z,67.38
2018-03-06T07:28:03.735Z,67.22
2018-03-06T07:29:03.738Z,66.94
2018-03-06T07:30:03.747Z,67.13
2018-03-06T07:31:03.751Z,66.85
2018-03-06T07:32:03.757Z,66.75
2018-03-06T07:33:03.762Z,67.22
2018-03-06T07:34:03.768Z,66.94
2018-03-06T07:35:03.775Z,66.66
2018-03-06T07:36:03.788Z,66.19
2018-03-06T07:37:03.793Z,65.81
2018-03-06T07:38:03.801Z,65.91
2018-03-06T07:39:03.806Z,65.91
2018-03-06T07:40:03.813Z,66.00
2018-03-06T07:41:03.812Z,65.43
2018-03-06T07:42:03.822Z,65.91
2018-03-06T07:43:03.824Z,66.00
2018-03-06T07:44:03.831Z,65.91
2018-03-06T07:45:03.835Z,65.53
2018-03-06T07:46:03.842Z,65.53
2018-03-06T07:47:03.856Z,66.00
2018-03-06T07:48:03.855Z,66.09
2018-03-06T07:49:03.866Z,66.28
2018-03-06T07:50:03.867Z,65.72
2018-03-06T07:51:03.880Z,66.09
2018-03-06T07:52:03.884Z,65.72
2018-03-06T07:53:03.888Z,65.05
2018-03-06T07:54:03.905Z,64.77
2018-03-06T07:55:03.904Z,65.43
2018-03-06T07:56:03.904Z,65.05
2018-03-06T07:57:03.914Z,64.77
2018-03-06T07:58:03.923Z,65.34
2018-03-06T07:59:03.920Z,65.91
2018-03-06T08:00:03.937Z,65.43
2018-03-06T08:01:03.941Z,65.05
2018-03-06T08:02:03.941Z,64.96
2018-03-06T08:03:03.946Z,65.43
2018-03-06T08:04:03.959Z,66.09
2018-03-06T08:05:03.964Z,65.72
2018-03-06T08:06:03.973Z,65.05
2018-03-06T08:07:03.980Z,64.77
2018-03-06T08:08:03.985Z,65.15
2018-03-06T08:09:03.989Z,64.67
2018-03-06T08:10:03.995Z,64.67
2018-03-06T08:11:04.001Z,64.11
2018-03-06T08:12:04.003Z,64.58
2018-03-06T08:13:04.016Z,65.91
2018-03-06T08:14:04.013Z,65.72
2018-03-06T08:15:04.022Z,65.62
2018-03-06T08:16:04.026Z,66.28
2018-03-06T08:17:04.038Z,67.03
2018-03-06T08:18:04.040Z,67.32
2018-03-06T08:19:04.050Z,67.22
2018-03-06T08:20:04.050Z,67.03
2018-03-06T08:21:04.062Z,67.32
2018-03-06T08:22:04.077Z,67.60
2018-03-06T08:23:04.068Z,67.22
2018-03-06T08:24:04.081Z,68.27
2018-03-06T08:25:04.088Z,67.51
2018-03-06T08:26:04.086Z,67.41
2018-03-06T08:27:04.092Z,67.41
2018-03-06T08:28:04.106Z,66.66
2018-03-06T08:29:04.111Z,65.91
2018-03-06T08:30:04.111Z,65.81
2018-03-06T08:31:04.126Z,66.66
2018-03-06T08:32:04.124Z,66.66
2018-03-06T08:33:04.129Z,66.19
2018-03-06T08:34:04.142Z,66.31
2018-03-06T08:35:04.151Z,66.31
2018-03-06T08:36:04.154Z,66.60
2018-03-06T08:37:04.158Z,67.36
2018-03-06T08:38:04.167Z,67.26
2018-03-06T08:39:04.169Z,64.80
2018-03-06T08:40:04.174Z,64.61
2018-03-06T08:41:04.189Z,66.22
2018-03-06T08:42:04.186Z,66.79
2018-03-06T08:43:04.193Z,65.75
2018-03-06T08:44:04.204Z,66.13
2018-03-06T08:45:04.211Z,66.82
2018-03-06T08:46:04.217Z,65.69
2018-03-06T08:47:04.217Z,65.02
2018-03-06T08:48:04.224Z,63.67
2018-03-06T08:49:04.236Z,64.04
2018-03-06T08:50:04.238Z,64.42
2018-03-06T08:51:04.243Z,63.85
2018-03-06T08:52:04.251Z,65.18
2018-03-06T08:53:04.255Z,66.25
2018-03-06T08:54:04.263Z,64.14
2018-03-06T08:55:04.271Z,63.76
2018-03-06T08:56:04.283Z,62.75
2018-03-06T08:57:04.290Z,63.13
2018-03-06T08:58:04.295Z,64.07
2018-03-06T08:59:04.297Z,63.98
2018-03-06T09:00:04.309Z,64.93
2018-03-06T09:01:04.318Z,64.07
2018-03-06T09:02:04.322Z,63.60
2018-03-06T09:03:04.324Z,64.83
2018-03-06T09:04:04.336Z,64.36
2018-03-06T09:05:04.338Z,67.20
2018-03-06T09:06:04.349Z,66.16
2018-03-06T09:07:04.353Z,67.11
2018-03-06T09:08:04.364Z,65.91
2018-03-06T09:09:04.366Z,65.63
2018-03-06T09:10:04.373Z,65.15
2018-03-06T09:11:04.388Z,64.55
2018-03-06T09:12:04.392Z,66.35
2018-03-06T09:13:04.394Z,66.06
2018-03-06T09:14:04.408Z,66.25
2018-03-06T09:15:04.409Z,67.30
2018-03-06T09:16:04.421Z,68.94
2018-03-06T09:17:04.428Z,68.08
2018-03-06T09:18:04.431Z,65.50
2018-03-06T09:19:04.444Z,65.97
2018-03-06T09:20:04.453Z,66.35
2018-03-06T09:21:04.455Z,65.02
2018-03-06T09:22:04.462Z,64.74
2018-03-06T09:23:04.467Z,64.64
2018-03-06T09:24:04.482Z,63.98
2018-03-06T09:25:04.488Z,63.89
2018-03-06T09:26:04.497Z,63.89
2018-03-06T09:27:04.497Z,64.17
2018-03-06T09:28:04.511Z,65.40
2018-03-06T09:29:04.519Z,66.44
2018-03-06T09:30:04.526Z,65.88
2018-03-06T09:31:04.533Z,66.44
2018-03-06T09:32:04.543Z,66.53
2018-03-06T09:33:04.549Z,67.30
2018-03-06T09:34:04.550Z,66.92
2018-03-06T09:35:04.558Z,66.16
2018-03-06T09:36:04.576Z,66.25
2018-03-06T09:37:04.579Z,66.38
2018-03-06T09:38:04.580Z,64.96
2018-03-06T09:39:04.588Z,65.34
2018-03-06T09:40:04.601Z,66.28
2018-03-06T09:41:04.609Z,64.96
2018-03-06T09:42:04.610Z,64.20
2018-03-06T09:43:04.620Z,64.17
2018-03-06T09:44:04.633Z,65.12
2018-03-06T09:45:04.639Z,65.88
2018-03-06T09:46:04.646Z,66.47
2018-03-06T09:47:04.665Z,66.38
2018-03-06T09:48:04.661Z,67.33
2018-03-06T09:49:04.663Z,66.95
2018-03-06T09:50:04.679Z,66.09
2018-03-06T09:51:04.680Z,65.19
2018-03-06T09:52:04.694Z,63.82
2018-03-06T09:53:04.696Z,63.73
2018-03-06T09:54:04.704Z,64.58
2018-03-06T09:55:04.718Z,64.04
2018-03-06T09:56:04.721Z,64.11
2018-03-06T09:57:04.733Z,65.81
2018-03-06T09:58:04.740Z,66.22
2018-03-06T09:59:04.751Z,64.11
2018-03-06T10:00:04.754Z,66.35
2018-03-06T10:01:04.765Z,67.39
2018-03-06T10:02:04.774Z,68.05
2018-03-06T10:03:04.823Z,68.33
2018-03-06T10:04:04.788Z,67.30
2018-03-06T10:05:04.793Z,68.46
2018-03-06T10:06:04.808Z,68.56
2018-03-06T10:07:04.814Z,67.43
2018-03-06T10:08:04.826Z,66.76
2018-03-06T10:09:04.829Z,66.57
2018-03-06T10:10:04.834Z,66.86
2018-03-06T10:11:04.851Z,67.05
2018-03-06T10:12:04.857Z,67.58
2018-03-06T10:13:04.864Z,68.33
2018-03-06T10:14:04.873Z,67.99
2018-03-06T10:15:04.881Z,68.46
2018-03-06T10:16:04.886Z,69.32
2018-03-06T10:17:04.896Z,68.81
2018-03-06T10:18:04.904Z,68.84
2018-03-06T10:19:04.913Z,69.79
2018-03-06T10:20:04.917Z,69.03
2018-03-06T10:21:04.932Z,67.71
2018-03-06T10:22:04.935Z,68.08
2018-03-06T10:23:04.949Z,68.46
2018-03-06T10:24:04.955Z,68.37
2018-03-06T10:25:04.960Z,68.84
2018-03-06T10:26:04.966Z,68.08
2018-03-06T10:27:04.982Z,68.08
2018-03-06T10:28:05.045Z,68.84
2018-03-06T10:29:04.990Z,68.81
2018-03-06T10:30:05.006Z,69.28
2018-03-06T10:31:05.020Z,68.94
2018-03-06T10:32:05.023Z,67.99
2018-03-06T10:33:05.029Z,67.33
2018-03-06T10:34:05.041Z,66.22
2018-03-06T10:35:05.043Z,65.75
2018-03-06T10:36:05.052Z,65.28
2018-03-06T10:37:05.065Z,64.17
2018-03-06T10:38:05.069Z,62.66
2018-03-06T10:39:05.077Z,62.08
2018-03-06T10:40:05.084Z,61.61
2018-03-06T10:41:05.095Z,62.56
2018-03-06T10:42:05.101Z,62.75
2018-03-06T10:43:05.117Z,62.18
2018-03-06T10:44:05.125Z,61.90
2018-03-06T10:45:05.132Z,61.33
2018-03-06T10:46:05.138Z,60.57
2018-03-06T10:47:05.156Z,61.05
2018-03-06T10:48:05.163Z,62.18
2018-03-06T10:49:05.171Z,62.47
2018-03-06T10:50:05.174Z,62.75
2018-03-06T10:51:05.184Z,62.28
2018-03-06T10:52:05.193Z,62.85
2018-03-06T10:53:05.206Z,64.17
2018-03-06T10:54:05.216Z,63.13
2018-03-06T10:55:05.235Z,63.04
2018-03-06T10:56:05.229Z,63.70
2018-03-06T10:57:05.246Z,64.17
2018-03-06T10:58:05.253Z,63.23
2018-03-06T10:59:05.258Z,61.99
2018-03-06T11:00:05.268Z,61.43
2018-03-06T11:01:05.277Z,63.01
2018-03-06T11:02:05.286Z,64.74
2018-03-06T11:03:05.299Z,64.90
2018-03-06T11:04:05.304Z,65.03
2018-03-06T11:05:05.313Z,63.70
2018-03-06T11:06:05.329Z,63.89
2018-03-06T11:07:05.337Z,63.98
2018-03-06T11:08:05.342Z,65.69
2018-03-06T11:09:05.357Z,62.37
2018-03-06T11:10:05.365Z,61.74
2018-03-06T11:11:05.377Z,59.84
2018-03-06T11:12:05.381Z,59.18
2018-03-06T11:13:05.389Z,58.89
2018-03-06T11:14:05.405Z,56.84
2018-03-06T11:15:05.414Z,55.79
2018-03-06T11:16:05.424Z,54.85
2018-03-06T11:17:05.432Z,54.75
2018-03-06T11:18:05.442Z,55.22
2018-03-06T11:19:05.449Z,56.46
2018-03-06T11:20:05.465Z,56.36
2018-03-06T11:21:05.469Z,55.00
2018-03-06T11:22:05.479Z,55.86
2018-03-06T11:23:05.489Z,56.46
2018-03-06T11:24:05.505Z,56.55
2018-03-06T11:25:05.514Z,56.74
2018-03-06T11:26:05.525Z,58.36
2018-03-06T11:27:05.537Z,56.81
2018-03-06T11:28:05.544Z,56.17
2018-03-06T11:29:05.555Z,56.36
2018-03-06T11:30:05.566Z,56.27
2018-03-06T11:31:05.580Z,56.27
2018-03-06T11:32:05.582Z,56.17
2018-03-06T11:33:05.598Z,55.22
2018-03-06T11:34:05.603Z,54.08
2018-03-06T11:35:05.613Z,56.08
2018-03-06T11:36:05.636Z,56.46
2018-03-06T11:37:05.652Z,56.36
2018-03-06T11:38:05.647Z,58.92
2018-03-06T11:39:05.655Z,59.94
2018-03-06T11:40:05.678Z,60.31
2018-03-06T11:41:05.685Z,61.55
2018-03-06T11:42:05.696Z,59.49
2018-03-06T11:43:05.705Z,58.99
2018-03-06T11:44:05.713Z,58.99
2018-03-06T11:45:05.729Z,58.89
2018-03-06T11:46:05.734Z,58.89
2018-03-06T11:47:05.744Z,56.52
2018-03-06T11:48:05.755Z,56.62
2018-03-06T11:49:05.763Z,59.25
2018-03-06T11:50:05.774Z,62.08
2018-03-06T11:51:05.787Z,63.70
2018-03-06T11:52:05.799Z,62.75
2018-03-06T11:53:05.807Z,63.70
2018-03-06T11:54:05.819Z,61.93
2018-03-06T11:55:05.828Z,60.03
2018-03-06T11:56:05.845Z,59.37
2018-03-06T11:57:05.853Z,58.23
2018-03-06T11:58:05.859Z,58.23
2018-03-06T11:59:05.872Z,59.66
2018-03-06T12:00:05.884Z,60.67
2018-03-06T12:01:05.896Z,63.20
2018-03-06T12:02:05.944Z,65.09
2018-03-06T12:03:05.913Z,66.99
2018-03-06T12:04:05.929Z,66.80
2018-03-06T12:05:05.941Z,65.56
2018-03-06T12:06:05.944Z,64.46
2018-03-06T12:07:05.959Z,63.60
2018-03-06T12:08:05.970Z,63.13
2018-03-06T12:09:05.979Z,62.21
2018-03-06T12:10:06.024Z,60.28
2018-03-06T12:11:06.000Z,59.72
2018-03-06T12:12:06.011Z,61.33
2018-03-06T12:13:06.018Z,61.33
2018-03-06T12:14:06.029Z,62.18
2018-03-06T12:15:06.041Z,62.75
2018-03-06T12:16:06.047Z,61.33
2018-03-06T12:17:06.056Z,60.28
2018-03-06T12:18:06.071Z,61.33
2018-03-06T12:19:06.075Z,60.57
2018-03-06T12:20:06.086Z,60.70
2018-03-06T12:21:06.103Z,61.46
2018-03-06T12:22:06.116Z,61.43
2018-03-06T12:23:06.121Z,63.23
2018-03-06T12:24:06.133Z,62.24
2018-03-06T12:25:06.138Z,62.43
2018-03-06T12:26:06.152Z,63.29
2018-03-06T12:27:06.162Z,63.39
2018-03-06T12:28:06.175Z,63.85
2018-03-06T12:29:06.177Z,63.67
2018-03-06T12:30:06.225Z,63.85
2018-03-06T12:31:06.200Z,63.95
2018-03-06T12:32:06.212Z,64.74
2018-03-06T12:33:06.215Z,63.70
2018-03-06T12:34:06.232Z,62.56
2018-03-06T12:35:06.236Z,61.80
2018-03-06T12:36:06.251Z,61.99
2018-03-06T12:37:06.261Z,62.47
2018-03-06T12:38:06.270Z,62.85
2018-03-06T12:39:06.285Z,65.19
2018-03-06T12:40:06.287Z,65.56
2018-03-06T12:41:06.293Z,65.66
2018-03-06T12:42:06.305Z,65.97
2018-03-06T12:43:06.313Z,68.15
2018-03-06T12:44:06.331Z,65.97
2018-03-06T12:45:06.333Z,64.17
2018-03-06T12:46:06.353Z,63.32
2018-03-06T12:47:06.359Z,62.85
2018-03-06T12:48:06.369Z,63.13
2018-03-06T12:49:06.379Z,63.42
2018-03-06T12:50:06.388Z,62.56
2018-03-06T12:51:06.400Z,62.28
2018-03-06T12:52:06.410Z,64.08